createdAt,value
2023-05-13T00:00:41.570Z,16.73
2023-05-13T00:03:12.393Z,17.05
2023-05-13T00:05:43.337Z,15.10
2023-05-13T00:08:14.030Z,15.28
2023-05-13T00:10:44.577Z,13.65
2023-05-13T00:13:15.346Z,14.93
2023-05-13T00:15:45.816Z,20.55
2023-05-13T00:18:16.476Z,18.57
2023-05-13T00:20:47.014Z,16.67
2023-05-13T00:23:17.532Z,15.37
2023-05-13T00:25:48.262Z,16.27
2023-05-13T00:28:19.565Z,17.37
2023-05-13T00:30:50.272Z,15.30
2023-05-13T00:33:20.908Z,15.63
2023-05-13T00:35:51.430Z,17.17
2023-05-13T00:38:22.779Z,17.37
2023-05-13T00:40:53.316Z,21.70
2023-05-13T00:43:23.849Z,15.10
2023-05-13T00:45:56.142Z,37.48
2023-05-13T00:48:27.005Z,23.22
2023-05-13T00:51:00.684Z,18.02
2023-05-13T00:53:35.068Z,19.02
2023-05-13T00:56:06.159Z,20.60
2023-05-13T00:58:37.068Z,17.73
2023-05-13T01:01:19.814Z,21.65
2023-05-13T01:04:17.789Z,24.70
2023-05-13T01:07:06.571Z,28.55
2023-05-13T01:09:49.656Z,14.25
2023-05-13T01:12:29.088Z,15.15
2023-05-13T01:15:17.613Z,18.62
2023-05-13T01:18:09.666Z,14.80
2023-05-13T01:20:43.618Z,13.00
2023-05-13T01:23:14.069Z,12.63
2023-05-13T01:25:45.368Z,14.10
2023-05-13T01:28:16.058Z,10.88
2023-05-13T01:30:47.861Z,17.70
2023-05-13T01:33:19.169Z,14.43
2023-05-13T01:35:50.035Z,14.07
2023-05-13T01:38:22.873Z,14.45
2023-05-13T01:40:53.906Z,18.17
2023-05-13T01:43:26.431Z,14.70
2023-05-13T01:45:59.230Z,16.52
2023-05-13T01:48:30.029Z,13.80
2023-05-13T01:51:00.690Z,20.65
2023-05-13T01:53:31.753Z,16.20
2023-05-13T01:56:03.592Z,14.10
2023-05-13T01:58:34.201Z,17.40
2023-05-13T02:01:05.140Z,12.83
2023-05-13T02:03:38.111Z,19.00
2023-05-13T02:06:08.742Z,15.95
2023-05-13T02:08:39.427Z,14.15
2023-05-13T02:11:10.248Z,7.72
2023-05-13T02:13:42.195Z,15.20
2023-05-13T02:16:20.687Z,14.47
2023-05-13T02:18:51.653Z,14.63
2023-05-13T02:21:22.146Z,14.75
2023-05-13T02:23:52.963Z,12.18
2023-05-13T02:26:24.990Z,14.78
2023-05-13T02:28:55.499Z,15.60
2023-05-13T02:31:26.736Z,13.20
2023-05-13T02:33:57.882Z,15.98
2023-05-13T02:36:28.420Z,23.40
2023-05-13T02:38:59.130Z,15.95
2023-05-13T02:41:29.567Z,18.55
2023-05-13T02:44:00.247Z,13.50
2023-05-13T02:46:30.905Z,18.40
2023-05-13T02:49:01.479Z,18.75
2023-05-13T02:51:31.929Z,20.80
2023-05-13T02:54:02.336Z,15.40
2023-05-13T02:56:32.982Z,23.83
2023-05-13T02:59:03.681Z,17.07
2023-05-13T03:01:34.360Z,29.37
2023-05-13T03:04:05.396Z,30.17
2023-05-13T03:06:35.989Z,22.87
2023-05-13T03:09:06.620Z,27.87
2023-05-13T03:11:37.395Z,21.82
2023-05-13T03:14:09.113Z,18.02
2023-05-13T03:16:40.720Z,31.10
2023-05-13T03:19:11.973Z,11.12
2023-05-13T03:21:42.811Z,7.10
2023-05-13T03:24:13.366Z,9.35
2023-05-13T03:26:44.365Z,8.38
2023-05-13T03:29:15.131Z,10.18
2023-05-13T03:31:46.322Z,8.25
2023-05-13T03:34:16.858Z,6.93
2023-05-13T03:36:49.029Z,9.50
2023-05-13T03:39:21.770Z,12.47
2023-05-13T03:41:52.343Z,7.35
2023-05-13T03:44:23.151Z,8.00
2023-05-13T03:46:53.634Z,10.73
2023-05-13T03:49:24.235Z,7.17
2023-05-13T03:51:54.757Z,10.13
2023-05-13T03:54:25.432Z,9.65
2023-05-13T03:56:56.103Z,9.68
2023-05-13T03:59:26.593Z,10.08
2023-05-13T04:01:57.161Z,11.63
2023-05-13T04:04:29.683Z,13.20
2023-05-13T04:07:01.237Z,15.08
2023-05-13T04:09:31.717Z,10.08
2023-05-13T04:12:03.619Z,9.88
2023-05-13T04:14:34.948Z,7.83
2023-05-13T04:17:06.070Z,7.75
2023-05-13T04:19:36.612Z,7.72
2023-05-13T04:22:07.233Z,7.80
2023-05-13T04:24:37.829Z,7.47
2023-05-13T04:27:08.361Z,10.68
2023-05-13T04:29:38.918Z,7.97
2023-05-13T04:32:09.640Z,9.30
2023-05-13T04:34:40.179Z,13.55
2023-05-13T04:37:10.775Z,11.68
2023-05-13T04:39:41.172Z,8.17
2023-05-13T04:42:11.833Z,9.03
2023-05-13T04:44:42.284Z,11.53
2023-05-13T04:47:13.318Z,8.23
2023-05-13T04:49:44.151Z,14.45
2023-05-13T04:52:15.059Z,9.83
2023-05-13T04:54:45.579Z,10.65
2023-05-13T04:57:16.608Z,9.63
2023-05-13T04:59:47.444Z,7.15
2023-05-13T05:02:17.920Z,6.45
2023-05-13T05:04:49.437Z,7.83
2023-05-13T05:07:20.052Z,6.35
2023-05-13T05:09:50.937Z,8.10
2023-05-13T05:12:21.424Z,6.83
2023-05-13T05:14:52.270Z,6.45
2023-05-13T05:17:22.823Z,8.33
2023-05-13T05:19:53.362Z,9.65
2023-05-13T05:22:23.861Z,10.48
2023-05-13T05:24:54.291Z,10.00
2023-05-13T05:27:24.699Z,6.03
2023-05-13T05:29:55.233Z,8.08
2023-05-13T05:32:25.976Z,13.85
2023-05-13T05:34:56.542Z,7.20
2023-05-13T05:37:27.857Z,8.80
2023-05-13T05:39:58.312Z,8.28
2023-05-13T05:42:28.892Z,8.55
2023-05-13T05:44:59.360Z,8.40
2023-05-13T05:47:30.516Z,6.42
2023-05-13T05:50:01.216Z,8.93
2023-05-13T05:52:34.889Z,10.45
2023-05-13T05:55:07.158Z,7.12
2023-05-13T05:57:37.678Z,7.33
2023-05-13T06:00:09.248Z,7.90
2023-05-13T06:02:40.192Z,7.05
2023-05-13T06:05:12.718Z,10.03
2023-05-13T06:07:43.326Z,8.20
2023-05-13T06:10:13.780Z,7.45
2023-05-13T06:12:44.343Z,7.33
2023-05-13T06:15:14.845Z,6.87
2023-05-13T06:17:45.738Z,7.50
2023-05-13T06:20:16.451Z,6.15
2023-05-13T06:22:48.040Z,7.00
2023-05-13T06:25:21.331Z,7.47
2023-05-13T06:27:51.885Z,5.62
2023-05-13T06:30:23.467Z,6.17
2023-05-13T06:33:01.654Z,7.08
2023-05-13T06:35:27.435Z,6.83
2023-05-13T06:37:58.069Z,7.37
2023-05-13T06:40:28.903Z,6.30
2023-05-13T06:42:59.913Z,10.03
2023-05-13T06:45:30.867Z,18.67
2023-05-13T06:48:01.791Z,11.80
2023-05-13T06:50:32.376Z,17.10
2023-05-13T06:53:02.991Z,29.48
2023-05-13T06:55:35.300Z,17.87
2023-05-13T06:58:05.951Z,33.80
2023-05-13T07:00:41.148Z,18.37
2023-05-13T07:03:11.717Z,20.00
2023-05-13T07:05:44.061Z,28.62
2023-05-13T07:08:16.453Z,26.00
2023-05-13T07:10:50.330Z,27.67
2023-05-13T07:13:22.610Z,18.87
2023-05-13T07:15:52.998Z,20.77
2023-05-13T07:18:24.863Z,15.63
2023-05-13T07:20:57.553Z,14.55
2023-05-13T07:23:27.971Z,12.63
2023-05-13T07:25:58.741Z,23.22
2023-05-13T07:28:29.256Z,17.45
2023-05-13T07:31:02.400Z,20.82
2023-05-13T07:33:35.222Z,23.42
2023-05-13T07:36:06.483Z,25.15
2023-05-13T07:38:37.099Z,34.03
2023-05-13T07:41:07.791Z,25.25
2023-05-13T07:43:39.940Z,10.72
2023-05-13T07:46:12.250Z,16.10
2023-05-13T07:48:43.195Z,20.68
2023-05-13T07:51:16.312Z,20.35
2023-05-13T07:53:46.960Z,11.63
2023-05-13T07:56:17.495Z,20.12
2023-05-13T07:58:49.324Z,29.67
2023-05-13T08:01:21.625Z,23.77
2023-05-13T08:03:52.492Z,17.60
2023-05-13T08:06:23.818Z,15.40
2023-05-13T08:08:54.313Z,26.77
2023-05-13T08:11:27.654Z,19.73
2023-05-13T08:13:58.992Z,21.20
2023-05-13T08:16:29.481Z,16.55
2023-05-13T08:19:00.020Z,33.92
2023-05-13T08:21:31.710Z,18.05
2023-05-13T08:24:02.575Z,22.80
2023-05-13T08:26:33.810Z,18.05
2023-05-13T08:29:06.081Z,20.65
2023-05-13T08:31:36.746Z,18.62
2023-05-13T08:34:25.119Z,21.27
2023-05-13T08:37:00.969Z,17.50
2023-05-13T08:39:37.729Z,23.98
2023-05-13T08:42:26.830Z,41.80
2023-05-13T08:45:04.408Z,13.38
2023-05-13T08:48:01.317Z,6.17
2023-05-13T08:50:34.474Z,9.45
2023-05-13T08:53:07.348Z,8.18
2023-05-13T08:55:40.302Z,8.35
2023-05-13T08:58:12.269Z,7.60
2023-05-13T09:00:44.286Z,9.93
2023-05-13T09:03:16.921Z,10.90
2023-05-13T09:08:49.165Z,8.23
2023-05-13T09:11:24.527Z,8.03
2023-05-13T09:14:02.057Z,10.50
2023-05-13T09:16:35.426Z,12.07
2023-05-13T09:19:08.902Z,6.17
2023-05-13T09:21:40.652Z,5.67
2023-05-13T09:24:23.003Z,6.78
2023-05-13T09:27:02.181Z,5.00
2023-05-13T09:29:33.819Z,6.92
2023-05-13T09:32:12.866Z,11.90
2023-05-13T09:35:09.818Z,8.98
2023-05-13T09:38:01.948Z,10.18
2023-05-13T09:40:34.454Z,8.93
2023-05-13T09:43:08.481Z,6.30
2023-05-13T09:45:40.968Z,10.32
2023-05-13T09:48:11.596Z,9.33
2023-05-13T09:54:08.514Z,14.18
2023-05-13T09:56:39.604Z,6.03
2023-05-13T09:59:10.797Z,11.45
2023-05-13T10:01:42.301Z,9.30
2023-05-13T10:04:13.273Z,8.95
2023-05-13T10:06:48.946Z,7.97
2023-05-13T10:09:22.356Z,5.17
2023-05-13T10:11:54.219Z,7.72
2023-05-13T10:14:25.042Z,7.55
2023-05-13T10:16:57.598Z,8.90
2023-05-13T10:19:28.574Z,8.08
2023-05-13T10:22:00.078Z,6.15
2023-05-13T10:24:31.347Z,6.85
2023-05-13T10:27:03.230Z,16.40
2023-05-13T10:29:35.933Z,7.83
2023-05-13T10:32:08.366Z,4.55
2023-05-13T10:34:40.774Z,6.17
2023-05-13T10:37:26.348Z,7.42
2023-05-13T10:40:34.644Z,5.37
2023-05-13T10:43:22.451Z,7.10
2023-05-13T10:45:59.356Z,14.23
2023-05-13T10:48:45.080Z,10.40
2023-05-13T10:51:18.137Z,7.05
2023-05-13T10:53:51.311Z,9.63
2023-05-13T10:56:24.242Z,11.40
2023-05-13T10:59:03.151Z,7.35
2023-05-13T11:01:40.707Z,5.83
2023-05-13T11:04:19.340Z,6.85
2023-05-13T11:06:51.287Z,7.62
2023-05-13T11:09:30.683Z,9.85
2023-05-13T11:12:01.895Z,6.72
2023-05-13T11:14:32.712Z,7.05
2023-05-13T11:17:06.762Z,6.37
2023-05-13T11:19:48.072Z,26.42
2023-05-13T11:22:25.084Z,13.13
2023-05-13T11:25:10.711Z,6.55
2023-05-13T11:27:43.186Z,8.68
2023-05-13T11:30:27.571Z,7.00
2023-05-13T11:33:03.357Z,6.12
2023-05-13T11:35:34.593Z,6.50
2023-05-13T11:38:06.494Z,6.15
2023-05-13T11:40:39.214Z,7.22
2023-05-13T11:43:12.856Z,5.53
2023-05-13T11:45:44.411Z,5.28
2023-05-13T11:48:26.298Z,5.25
2023-05-13T11:51:03.620Z,9.55
2023-05-13T11:53:36.296Z,5.15
2023-05-13T11:56:13.809Z,7.42
2023-05-13T11:58:47.474Z,5.50
2023-05-13T12:01:18.138Z,4.03
2023-05-13T12:03:48.705Z,6.62
2023-05-13T12:06:19.883Z,5.60
2023-05-13T12:08:50.406Z,9.30
2023-05-13T12:11:21.030Z,8.65
2023-05-13T12:13:52.714Z,6.22
2023-05-13T12:16:25.535Z,4.92
2023-05-13T12:19:00.760Z,5.70
2023-05-13T12:21:33.874Z,12.07
2023-05-13T12:24:18.698Z,4.25
2023-05-13T12:26:50.430Z,10.60
2023-05-13T12:29:20.935Z,7.78
2023-05-13T12:32:10.271Z,7.83
2023-05-13T12:34:41.029Z,9.90
2023-05-13T12:37:15.053Z,9.58
2023-05-13T12:39:46.032Z,6.28
2023-05-13T12:42:19.541Z,8.65
2023-05-13T12:44:50.141Z,6.30
2023-05-13T12:47:22.332Z,7.83
2023-05-13T12:49:55.773Z,8.50
2023-05-13T12:52:26.422Z,6.15
2023-05-13T12:54:56.934Z,6.22
2023-05-13T12:57:29.585Z,7.25
2023-05-13T13:00:00.752Z,10.15
2023-05-13T13:02:31.485Z,7.47
2023-05-13T13:05:02.098Z,6.80
2023-05-13T13:07:32.859Z,9.08
2023-05-13T13:10:03.409Z,7.28
2023-05-13T13:12:34.931Z,8.68
2023-05-13T13:15:10.343Z,10.05
2023-05-13T13:17:42.620Z,10.15
2023-05-13T13:20:13.506Z,10.72
2023-05-13T13:22:44.040Z,12.10
2023-05-13T13:25:14.712Z,7.47
2023-05-13T13:27:45.298Z,6.03
2023-05-13T13:30:16.648Z,5.55
2023-05-13T13:32:47.176Z,5.75
2023-05-13T13:35:17.746Z,12.15
2023-05-13T13:37:48.303Z,9.90
2023-05-13T13:40:19.769Z,9.70
2023-05-13T13:42:50.592Z,6.72
2023-05-13T13:45:22.893Z,5.60
2023-05-13T13:47:53.554Z,7.50
2023-05-13T13:50:24.628Z,7.83
2023-05-13T13:52:55.419Z,6.12
2023-05-13T13:55:25.941Z,10.65
2023-05-13T13:57:56.572Z,8.30
2023-05-13T14:00:27.151Z,5.25
2023-05-13T14:02:57.813Z,7.92
2023-05-13T14:05:28.368Z,6.12
2023-05-13T14:07:59.253Z,6.62
2023-05-13T14:10:29.734Z,7.42
2023-05-13T14:13:00.550Z,12.33
2023-05-13T14:15:31.538Z,8.33
2023-05-13T14:18:02.209Z,4.97
2023-05-13T14:20:34.059Z,6.15
2023-05-13T14:23:05.539Z,6.37
2023-05-13T14:25:37.181Z,9.50
2023-05-13T14:28:07.713Z,9.13
2023-05-13T14:30:38.359Z,14.50
2023-05-13T14:33:09.087Z,7.78
2023-05-13T14:35:39.989Z,9.85
2023-05-13T14:38:10.732Z,7.05
2023-05-13T14:40:41.459Z,6.08
2023-05-13T14:43:11.949Z,5.50
2023-05-13T14:45:42.392Z,5.20
2023-05-13T14:48:13.190Z,4.58
2023-05-13T14:50:45.181Z,6.12
2023-05-13T14:53:15.824Z,7.03
2023-05-13T14:55:46.529Z,9.20
2023-05-13T14:58:18.988Z,6.90
2023-05-13T15:00:49.961Z,7.90
2023-05-13T15:03:20.725Z,6.30
2023-05-13T15:05:52.253Z,6.53
2023-05-13T15:08:24.283Z,4.03
2023-05-13T15:10:54.831Z,7.30
2023-05-13T15:13:27.226Z,5.35
2023-05-13T15:15:57.748Z,6.17
2023-05-13T15:18:28.257Z,9.40
2023-05-13T15:21:01.684Z,8.50
2023-05-13T15:23:32.162Z,6.60
2023-05-13T15:26:04.949Z,7.28
2023-05-13T15:28:35.483Z,4.80
2023-05-13T15:31:07.411Z,6.37
2023-05-13T15:33:37.931Z,6.50
2023-05-13T15:36:09.868Z,6.33
2023-05-13T15:38:40.345Z,8.33
2023-05-13T15:41:10.844Z,9.03
2023-05-13T15:43:41.363Z,5.95
2023-05-13T15:46:12.076Z,9.93
2023-05-13T15:48:42.752Z,10.98
2023-05-13T15:51:13.264Z,7.22
2023-05-13T15:53:43.741Z,8.35
2023-05-13T15:56:14.446Z,8.70
2023-05-13T15:58:44.997Z,9.65
2023-05-13T16:01:15.684Z,8.80
2023-05-13T16:03:46.628Z,6.90
2023-05-13T16:06:17.310Z,8.33
2023-05-13T16:08:48.454Z,7.95
2023-05-13T16:11:19.272Z,8.95
2023-05-13T16:13:49.721Z,8.93
2023-05-13T16:16:23.029Z,12.98
2023-05-13T16:18:53.623Z,9.58
2023-05-13T16:21:24.726Z,9.40
2023-05-13T16:23:55.913Z,6.58
2023-05-13T16:26:27.836Z,13.18
2023-05-13T16:28:58.349Z,9.58
2023-05-13T16:31:28.799Z,9.43
2023-05-13T16:33:59.714Z,8.53
2023-05-13T16:36:30.618Z,9.28
2023-05-13T16:39:01.695Z,10.70
2023-05-13T16:41:33.191Z,10.00
2023-05-13T16:44:04.661Z,8.68
2023-05-13T16:46:35.975Z,12.63
2023-05-13T16:49:06.548Z,10.28
2023-05-13T16:51:37.026Z,9.23
2023-05-13T16:54:07.926Z,7.83
2023-05-13T16:56:39.067Z,10.93
2023-05-13T16:59:27.222Z,8.63
2023-05-13T17:01:59.452Z,5.90
2023-05-13T17:04:30.289Z,9.20
2023-05-13T17:07:01.618Z,9.25
2023-05-13T17:09:32.065Z,7.85
2023-05-13T17:12:02.997Z,7.50
2023-05-13T17:14:33.685Z,11.08
2023-05-13T17:17:04.313Z,9.00
2023-05-13T17:19:36.350Z,8.83
2023-05-13T17:22:06.898Z,6.95
2023-05-13T17:24:38.707Z,6.62
2023-05-13T17:27:10.097Z,5.75
2023-05-13T17:29:40.548Z,7.42
2023-05-13T17:32:11.596Z,6.65
2023-05-13T17:34:43.716Z,5.72
2023-05-13T17:37:14.770Z,7.92
2023-05-13T17:39:45.225Z,8.13
2023-05-13T17:42:16.578Z,7.95
2023-05-13T17:44:47.104Z,7.25
2023-05-13T17:47:17.958Z,6.62
2023-05-13T17:49:48.773Z,7.05
2023-05-13T17:52:19.287Z,5.97
2023-05-13T17:54:49.752Z,6.12
2023-05-13T17:57:21.213Z,6.85
2023-05-13T17:59:53.234Z,7.72
2023-05-13T18:02:24.305Z,7.03
2023-05-13T18:04:55.513Z,7.22
2023-05-13T18:07:27.677Z,8.60
2023-05-13T18:09:59.104Z,7.70
2023-05-13T18:12:30.275Z,7.10
2023-05-13T18:15:00.919Z,6.85
2023-05-13T18:17:31.328Z,7.45
2023-05-13T18:20:02.363Z,6.00
2023-05-13T18:22:35.664Z,5.87
2023-05-13T18:25:07.378Z,5.60
2023-05-13T18:27:38.265Z,6.90
2023-05-13T18:30:09.362Z,7.08
2023-05-13T18:32:39.922Z,6.05
2023-05-13T18:35:11.749Z,8.03
2023-05-13T18:37:42.200Z,6.33
2023-05-13T18:40:13.372Z,7.90
2023-05-13T18:42:43.917Z,6.80
2023-05-13T18:45:14.596Z,6.37
2023-05-13T18:47:45.327Z,6.28
2023-05-13T18:50:16.114Z,7.85
2023-05-13T18:52:46.779Z,7.15
2023-05-13T18:55:17.403Z,6.12
2023-05-13T18:57:47.848Z,7.87
2023-05-13T19:00:19.963Z,10.15
2023-05-13T19:02:51.005Z,7.87
2023-05-13T19:05:21.894Z,11.45
2023-05-13T19:07:52.457Z,7.83
2023-05-13T19:10:25.664Z,7.22
2023-05-13T19:12:56.170Z,8.05
2023-05-13T19:15:27.047Z,7.25
2023-05-13T19:17:57.710Z,9.83
2023-05-13T19:20:30.769Z,7.03
2023-05-13T19:23:01.320Z,8.28
2023-05-13T19:25:31.844Z,8.55
2023-05-13T19:28:05.935Z,6.97
2023-05-13T19:30:36.869Z,10.28
2023-05-13T19:33:08.163Z,7.53
2023-05-13T19:35:38.854Z,6.97
2023-05-13T19:38:09.924Z,7.70
2023-05-13T19:40:41.146Z,7.90
2023-05-13T19:43:12.324Z,6.22
2023-05-13T19:45:43.075Z,12.68
2023-05-13T19:48:13.861Z,6.78
2023-05-13T19:50:44.630Z,9.20
2023-05-13T19:53:18.703Z,6.83
2023-05-13T19:55:50.434Z,7.78
2023-05-13T19:58:20.859Z,8.78
2023-05-13T20:00:52.808Z,10.10
2023-05-13T20:03:23.675Z,9.78
2023-05-13T20:05:55.220Z,8.78
2023-05-13T20:08:25.773Z,9.70
2023-05-13T20:10:56.200Z,9.68
2023-05-13T20:13:26.640Z,8.93
2023-05-13T20:15:57.084Z,8.35
2023-05-13T20:18:27.654Z,11.08
2023-05-13T20:20:58.374Z,10.53
2023-05-13T20:23:28.959Z,8.68
2023-05-13T20:25:59.592Z,14.20
2023-05-13T20:28:30.027Z,12.07
2023-05-13T20:31:03.740Z,9.73
2023-05-13T20:33:34.276Z,10.00
2023-05-13T20:36:06.261Z,9.55
2023-05-13T20:38:37.078Z,7.95
2023-05-13T20:41:07.780Z,8.88
2023-05-13T20:43:38.661Z,10.93
2023-05-13T20:46:09.829Z,9.38
2023-05-13T20:48:40.826Z,9.33
2023-05-13T20:51:11.850Z,8.45
2023-05-13T20:53:42.562Z,7.75
2023-05-13T20:56:13.032Z,8.75
2023-05-13T20:58:43.529Z,9.88
2023-05-13T21:01:14.043Z,9.38
2023-05-13T21:03:49.971Z,9.48
2023-05-13T21:06:19.600Z,11.33
2023-05-13T21:08:51.356Z,12.20
2023-05-13T21:11:22.315Z,10.78
2023-05-13T21:13:52.847Z,10.98
2023-05-13T21:16:23.353Z,10.43
2023-05-13T21:18:55.647Z,8.30
2023-05-13T21:21:26.083Z,9.63
2023-05-13T21:23:56.567Z,12.05
2023-05-13T21:26:28.313Z,13.20
2023-05-13T21:28:58.724Z,8.73
2023-05-13T21:31:30.819Z,11.03
2023-05-13T21:34:01.850Z,10.70
2023-05-13T21:36:33.159Z,10.45
2023-05-13T21:39:04.528Z,11.15
2023-05-13T21:41:35.094Z,9.70
2023-05-13T21:44:05.731Z,10.00
2023-05-13T21:46:36.552Z,11.30
2023-05-13T21:49:07.151Z,10.23
2023-05-13T21:51:37.703Z,12.85
2023-05-13T21:54:08.914Z,15.03
2023-05-13T21:56:39.309Z,47.65
2023-05-13T21:59:09.835Z,14.30
2023-05-13T22:01:40.430Z,10.25
2023-05-13T22:04:10.919Z,11.45
2023-05-13T22:06:41.375Z,11.55
2023-05-13T22:09:11.863Z,11.63
2023-05-13T22:11:42.438Z,10.45
2023-05-13T22:14:14.722Z,10.03
2023-05-13T22:16:48.058Z,10.43
2023-05-13T22:19:18.247Z,11.18
2023-05-13T22:21:49.443Z,12.00
2023-05-13T22:24:19.887Z,10.88
2023-05-13T22:26:50.532Z,11.18
2023-05-13T22:29:21.397Z,9.60
2023-05-13T22:31:52.496Z,10.20
2023-05-13T22:34:23.271Z,10.30
2023-05-13T22:36:53.760Z,10.13
2023-05-13T22:39:26.108Z,10.72
2023-05-13T22:41:56.552Z,10.55
2023-05-13T22:44:27.160Z,9.75
2023-05-13T22:46:57.634Z,10.30
2023-05-13T22:49:28.104Z,12.10
2023-05-13T22:51:58.669Z,9.95
2023-05-13T22:54:29.189Z,10.60
2023-05-13T22:56:59.850Z,9.78
2023-05-13T22:59:30.702Z,10.68
2023-05-13T23:02:01.215Z,10.13
2023-05-13T23:04:31.887Z,10.65
2023-05-13T23:07:02.405Z,10.43
2023-05-13T23:09:32.856Z,11.08
2023-05-13T23:12:03.440Z,12.50
2023-05-13T23:14:33.982Z,10.88
2023-05-13T23:17:04.539Z,11.20
2023-05-13T23:19:35.119Z,10.72
2023-05-13T23:22:05.691Z,10.55
2023-05-13T23:24:36.296Z,10.75
2023-05-13T23:27:07.386Z,11.43
2023-05-13T23:29:37.824Z,10.78
2023-05-13T23:32:08.563Z,10.10
2023-05-13T23:34:39.566Z,10.65
2023-05-13T23:37:10.913Z,11.10
2023-05-13T23:39:41.364Z,10.28
2023-05-13T23:42:11.994Z,10.38
2023-05-13T23:44:42.551Z,11.38
2023-05-13T23:47:13.630Z,10.23
2023-05-13T23:49:44.105Z,12.60
2023-05-13T23:52:16.958Z,12.98
2023-05-13T23:54:47.535Z,10.38
2023-05-13T23:57:18.163Z,11.48
2023-05-13T23:59:48.844Z,10.72
